Sabinal, Texas
Current Conditions -  °F | °C
As of 5:55 PM on Wednesday 22 Oct 2014 (Local Time) from KUVA Reporting Station
Broken Clouds Broken Clouds  
Wind Chill: 81°   Ceiling: 11000
Heat Index: 81°   Visibility: 10mi
Dew Point: 55°   Wind: 6mph
Humidity: 41%   Direction: 120°ESE
Pressure: 30.04"   Gusts: NA
Location:  29.32°N, 99.47°W
Report Text: KUVA 222255Z AUTO 12005KT 10SM BKN110 27/13 A3004 RMK AO2 T02700126
Loading
Personal Weather Stations






























Interactive Weather Map New forecast layout! Learn more

10-Day Weather Forecast

Advertisements
Track Severe Weather on mobile